Observation data for Seminole on 12/09/2018      Previous  Date       Current Mesonet Observations  Soil Data  Daily Summary Page  Observations in Plain Language
KSM1 090600Z 05002KT M02/M03 A303 RMK A01 T10211026  RH  097%=      5-min Rain = 0
KSM1 090605Z 05002KT M02/M03 A303 RMK A01 T10211026  RH  097%=      5-min Rain = 0
KSM1 090610Z 05002KT M02/M03 A303 RMK A01 T10211025  RH  097%=      5-min Rain = 0
KSM1 090615Z 05002KT M02/M02 A3029 RMK A01 T10191024  RH  097%=      5-min Rain = 0
KSM1 090620Z 05001KT M02/M02 A3029 RMK A01 T10191023  RH  097%=      5-min Rain = 0
KSM1 090625Z 00000KT M02/M02 A3029 RMK A01 T10171021  RH  097%=      5-min Rain = 0
KSM1 090630Z 05000KT M02/M02 A3029 RMK A01 T10161020  RH  097%=      5-min Rain = 0
KSM1 090635Z 05000KT M02/M02 A3029 RMK A01 T10161020  RH  097%=      5-min Rain = 0
KSM1 090640Z 05000KT M02/M02 A3029 RMK A01 T10161021  RH  097%=      5-min Rain = 0
KSM1 090645Z 00000KT M02/M02 A3029 RMK A01 T10161021  RH  097%=      5-min Rain = 0
KSM1 090650Z 00000KT M02/M02 A3029 RMK A01 T10171022  RH  097%=      5-min Rain = 0
KSM1 090655Z 00000KT M02/M02 A3029 RMK A01 T10181023  RH  097%=      5-min Rain = 0
KSM1 090700Z 00000KT M02/M02 A3029 RMK A01 T10191023  RH  097%=      5-min Rain = 0
KSM1 090705Z 00000KT M02/M02 A3029 RMK A01 T10191024  RH  097%=      5-min Rain = 0
KSM1 090710Z 05000KT M02/M02 A3029 RMK A01 T10201024  RH  097%=      5-min Rain = 0
KSM1 090715Z 05000KT M02/M03 A3028 RMK A01 T10221027  RH  097%=      5-min Rain = 0
KSM1 090720Z 05001KT M02/M03 A3028 RMK A01 T10231028  RH  097%=      5-min Rain = 0
KSM1 090725Z 05001KT M02/M03 A3028 RMK A01 T10241029  RH  097%=      5-min Rain = 0
KSM1 090730Z 05001KT M03/M03 A3028 RMK A01 T10251029  RH  097%=      5-min Rain = 0
KSM1 090735Z 05001KT M02/M03 A3028 RMK A01 T10241028  RH  098%=      5-min Rain = 0
KSM1 090740Z 05001KT M02/M03 A3028 RMK A01 T10211026  RH  098%=      5-min Rain = 0
KSM1 090745Z 05000KT M02/M02 A3028 RMK A01 T10201024  RH  098%=      5-min Rain = 0
KSM1 090750Z 05000KT M02/M02 A3027 RMK A01 T10181022  RH  098%=      5-min Rain = 0
KSM1 090755Z 05000KT M02/M02 A3027 RMK A01 T10171022  RH  098%=      5-min Rain = 0
KSM1 090800Z 36001KT M02/M02 A3028 RMK A01 T10191024  RH  098%=      5-min Rain = 0
KSM1 090805Z 35004KT M02/M03 A3027 RMK A01 T10241029  RH  097%=      5-min Rain = 0
KSM1 090810Z 35004KT M03/M03 A3027 RMK A01 T10251029  RH  097%=      5-min Rain = 0
KSM1 090815Z 35003KT M02/M03 A3027 RMK A01 T10241028  RH  098%=      5-min Rain = 0
KSM1 090820Z 35003KT M02/M03 A3027 RMK A01 T10241028  RH  098%=      5-min Rain = 0
KSM1 090825Z 34004KT M02/M03 A3028 RMK A01 T10231027  RH  098%=      5-min Rain = 0
KSM1 090830Z 31004KT M02/M03 A3028 RMK A01 T10211025  RH  098%=      5-min Rain = 0
KSM1 090835Z 30004KT M02/M02 A3028 RMK A01 T10181022  RH  098%=      5-min Rain = 0
KSM1 090840Z 31004KT M02/M02 A3028 RMK A01 T10181022  RH  098%=      5-min Rain = 0
KSM1 090845Z 31004KT M02/M02 A3028 RMK A01 T10201024  RH  098%=      5-min Rain = 0
KSM1 090850Z 31004KT M02/M03 A3028 RMK A01 T10211025  RH  098%=      5-min Rain = 0
KSM1 090855Z 31005KT M02/M03 A3028 RMK A01 T10221026  RH  098%=      5-min Rain = 0
KSM1 090900Z 31005KT M02/M03 A3028 RMK A01 T10221027  RH  098%=      5-min Rain = 0
KSM1 090905Z 31005KT M02/M03 A3027 RMK A01 T10221027  RH  098%=      5-min Rain = 0
KSM1 090910Z 32005KT M02/M03 A3027 RMK A01 T10231028  RH  097%=      5-min Rain = 0
KSM1 090915Z 32005KT M02/M03 A3027 RMK A01 T10241028  RH  097%=      5-min Rain = 0
KSM1 090920Z 32005KT M02/M03 A3027 RMK A01 T10231028  RH  098%=      5-min Rain = 0
KSM1 090925Z 32005KT M02/M03 A3027 RMK A01 T10231027  RH  098%=      5-min Rain = 0
KSM1 090930Z 32005KT M02/M03 A3027 RMK A01 T10231027  RH  098%=      5-min Rain = 0
KSM1 090935Z 32005KT M02/M03 A3027 RMK A01 T10241028  RH  097%=      5-min Rain = 0
KSM1 090940Z 32005KT M02/M03 A3027 RMK A01 T10241029  RH  097%=      5-min Rain = 0
KSM1 090945Z 32005KT M02/M03 A3028 RMK A01 T10241029  RH  097%=      5-min Rain = 0
KSM1 090950Z 33005KT M03/M03 A3028 RMK A01 T10251030  RH  097%=      5-min Rain = 0
KSM1 090955Z 33005KT M03/M03 A3028 RMK A01 T10251029  RH  097%=      5-min Rain = 0
KSM1 091000Z 33005KT M02/M03 A3028 RMK A01 T10241029  RH  097%=      5-min Rain = 0
KSM1 091005Z 33004KT M02/M03 A3028 RMK A01 T10241029  RH  097%=      5-min Rain = 0
KSM1 091010Z 33004KT M03/M03 A3028 RMK A01 T10251030  RH  097%=      5-min Rain = 0
KSM1 091015Z 33003KT M02/M03 A3027 RMK A01 T10241029  RH  097%=      5-min Rain = 0
KSM1 091020Z 33004KT M02/M03 A3028 RMK A01 T10241029  RH  097%=      5-min Rain = 0
KSM1 091025Z 33004KT M02/M03 A3028 RMK A01 T10241029  RH  097%=      5-min Rain = 0
KSM1 091030Z 33004KT M02/M03 A3028 RMK A01 T10241029  RH  097%=      5-min Rain = 0
KSM1 091035Z 33004KT M02/M03 A3028 RMK A01 T10241030  RH  097%=      5-min Rain = 0
KSM1 091040Z 33004KT M03/M03 A3028 RMK A01 T10251030  RH  097%=      5-min Rain = 0
KSM1 091045Z 32005KT M03/M03 A3028 RMK A01 T10251030  RH  097%=      5-min Rain = 0
KSM1 091050Z 32004KT M03/M03 A3028 RMK A01 T10251031  RH  097%=      5-min Rain = 0
KSM1 091055Z 33003KT M03/M03 A3028 RMK A01 T10271033  RH  097%=      5-min Rain = 0
KSM1 091100Z 34002KT M03/M03 A3028 RMK A01 T10281034  RH  096%=      5-min Rain = 0
KSM1 091105Z 33002KT M03/M03 A3028 RMK A01 T10271032  RH  097%=      5-min Rain = 0
KSM1 091110Z 32004KT M03/M03 A3028 RMK A01 T10251030  RH  097%=      5-min Rain = 0
KSM1 091115Z 32004KT M02/M03 A3028 RMK A01 T10241029  RH  097%=      5-min Rain = 0
KSM1 091120Z 30004KT M02/M03 A3028 RMK A01 T10231028  RH  097%=      5-min Rain = 0
KSM1 091125Z 31004KT M02/M03 A3028 RMK A01 T10231028  RH  097%=      5-min Rain = 0
KSM1 091130Z 31005KT M02/M03 A3029 RMK A01 T10241030  RH  096%=      5-min Rain = 0
KSM1 091135Z 31005KT M02/M03 A3029 RMK A01 T10241030  RH  096%=      5-min Rain = 0
KSM1 091140Z 31005KT M02/M03 A3029 RMK A01 T10231029  RH  096%=      5-min Rain = 0
KSM1 091145Z 31005KT M02/M03 A3029 RMK A01 T10231029  RH  096%=      5-min Rain = 0
KSM1 091150Z 31005KT M02/M03 A3029 RMK A01 T10241030  RH  096%=      5-min Rain = 0
KSM1 091155Z 31005KT M02/M03 A3029 RMK A01 T10241031  RH  096%=      5-min Rain = 0
KSM1 091200Z 32005KT M03/M03 A303 RMK A01 T10251031  RH  096%=      5-min Rain = 0
KSM1 091205Z 32005KT M03/M03 A303 RMK A01 T10261032  RH  096%=      5-min Rain = 0
KSM1 091210Z 32005KT M03/M03 A303 RMK A01 T10261032  RH  096%=      5-min Rain = 0
KSM1 091215Z 33005KT M03/M03 A3031 RMK A01 T10261032  RH  096%=      5-min Rain = 0
KSM1 091220Z 33004KT M03/M03 A3031 RMK A01 T10261032  RH  096%=      5-min Rain = 0
KSM1 091225Z 33004KT M03/M03 A3031 RMK A01 T10261032  RH  096%=      5-min Rain = 0
KSM1 091230Z 32004KT M03/M03 A3031 RMK A01 T10261032  RH  096%=      5-min Rain = 0
KSM1 091235Z 32004KT M03/M03 A3031 RMK A01 T10251032  RH  096%=      5-min Rain = 0
KSM1 091240Z 32005KT M03/M03 A3032 RMK A01 T10251031  RH  096%=      5-min Rain = 0
KSM1 091245Z 32005KT M02/M03 A3032 RMK A01 T10231029  RH  096%=      5-min Rain = 0
KSM1 091250Z 33004KT M02/M03 A3032 RMK A01 T10211028  RH  096%=      5-min Rain = 0
KSM1 091255Z 33003KT M02/M03 A3032 RMK A01 T10191026  RH  096%=      5-min Rain = 0
KSM1 091300Z 33004KT M02/M03 A3032 RMK A01 T10181025  RH  096%=      5-min Rain = 0
KSM1 091305Z 34004KT M02/M02 A3032 RMK A01 T10171024  RH  096%=      5-min Rain = 0
KSM1 091310Z 34005KT M02/M02 A3033 RMK A01 T10161023  RH  096%=      5-min Rain = 0
KSM1 091315Z 34004KT M02/M02 A3033 RMK A01 T10151023  RH  095%=      5-min Rain = 0
KSM1 091320Z 35004KT M02/M02 A3033 RMK A01 T10151022  RH  095%=      5-min Rain = 0
KSM1 091325Z 35003KT M01/M02 A3033 RMK A01 T10141022  RH  095%=      5-min Rain = 0
KSM1 091330Z 35002KT M01/M02 A3033 RMK A01 T10141021  RH  095%=      5-min Rain = 0
KSM1 091335Z 35003KT M01/M02 A3033 RMK A01 T10131021  RH  095%=      5-min Rain = 0
KSM1 091340Z 35003KT M01/M02 A3033 RMK A01 T10131021  RH  095%=      5-min Rain = 0
KSM1 091345Z 35002KT M01/M02 A3034 RMK A01 T10131021  RH  095%=      5-min Rain = 0
KSM1 091350Z 35002KT M01/M02 A3034 RMK A01 T10121020  RH  095%=      5-min Rain = 0
KSM1 091355Z 35002KT M01/M02 A3034 RMK A01 T10121020  RH  095%=      5-min Rain = 0
KSM1 091400Z 35002KT M01/M02 A3034 RMK A01 T10111019  RH  095%=      5-min Rain = 0
KSM1 091405Z 36002KT M01/M02 A3034 RMK A01 T10111019  RH  095%=      5-min Rain = 0
KSM1 091410Z 36002KT M01/M02 A3034 RMK A01 T10101018  RH  095%=      5-min Rain = 0
KSM1 091415Z 36002KT M01/M02 A3035 RMK A01 T10091017  RH  095%=      5-min Rain = 0
KSM1 091420Z 35002KT M01/M02 A3035 RMK A01 T10091017  RH  095%=      5-min Rain = 0
KSM1 091425Z 35002KT M01/M02 A3035 RMK A01 T10091017  RH  095%=      5-min Rain = 0
KSM1 091430Z 34002KT M01/M02 A3036 RMK A01 T10081016  RH  095%=      5-min Rain = 0
KSM1 091435Z 33002KT M01/M02 A3036 RMK A01 T10071015  RH  095%=      5-min Rain = 0
KSM1 091440Z 32002KT M01/M02 A3036 RMK A01 T10071015  RH  095%=      5-min Rain = 0
KSM1 091445Z 32002KT M01/M01 A3036 RMK A01 T10061014  RH  095%=      5-min Rain = 0
KSM1 091450Z 32002KT M01/M01 A3036 RMK A01 T10051014  RH  095%=      5-min Rain = 0
KSM1 091455Z 32003KT M01/M01 A3036 RMK A01 T10051014  RH  095%=      5-min Rain = 0
KSM1 091500Z 32003KT M01/M01 A3037 RMK A01 T10051014  RH  095%=      5-min Rain = 0
KSM1 091505Z 32002KT M01/M01 A3037 RMK A01 T10051013  RH  095%=      5-min Rain = 0
KSM1 091510Z 32002KT M00/M01 A3037 RMK A01 T10041013  RH  095%=      5-min Rain = 0
KSM1 091515Z 32002KT M00/M01 A3037 RMK A01 T10041012  RH  095%=      5-min Rain = 0
KSM1 091520Z 32002KT M00/M01 A3037 RMK A01 T10041012  RH  095%=      5-min Rain = 0
KSM1 091525Z 31002KT M00/M01 A3038 RMK A01 T10041012  RH  095%=      5-min Rain = 0
KSM1 091530Z 31003KT M00/M01 A3038 RMK A01 T10031011  RH  095%=      5-min Rain = 0
KSM1 091535Z 31003KT M00/M01 A3038 RMK A01 T10021010  RH  095%=      5-min Rain = 0
KSM1 091540Z 30004KT M00/M01 A3039 RMK A01 T10021010  RH  095%=      5-min Rain = 0
KSM1 091545Z 31004KT M00/M01 A3039 RMK A01 T10021010  RH  095%=      5-min Rain = 0
KSM1 091550Z 30003KT M00/M01 A3039 RMK A01 T10011009  RH  095%=      5-min Rain = 0
KSM1 091555Z 30003KT 00/01 A3039 RMK A01 T00-000-9  RH  095%=      5-min Rain = 0
KSM1 091600Z 30003KT 00/M01 A3039 RMK A01 T00011008  RH  095%=      5-min Rain = 0
KSM1 091605Z 30003KT 00/M01 A3039 RMK A01 T00031006  RH  095%=      5-min Rain = 0
KSM1 091610Z 30003KT 00/M01 A304 RMK A01 T00041006  RH  095%=      5-min Rain = 0
KSM1 091615Z 30003KT 00/M01 A304 RMK A01 T00041006  RH  094%=      5-min Rain = 0
KSM1 091620Z 30003KT 01/M01 A304 RMK A01 T00051005  RH  094%=      5-min Rain = 0
KSM1 091625Z 30003KT 01/M00 A304 RMK A01 T00071004  RH  094%=      5-min Rain = 0
KSM1 091630Z 29004KT 01/M00 A304 RMK A01 T00081004  RH  093%=      5-min Rain = 0
KSM1 091635Z 29004KT 01/M00 A304 RMK A01 T00101003  RH  092%=      5-min Rain = 0
KSM1 091640Z 29004KT 01/M00 A304 RMK A01 T00121002  RH  092%=      5-min Rain = 0
KSM1 091645Z 30003KT 01/M00 A304 RMK A01 T00141002  RH  090%=      5-min Rain = 0
KSM1 091650Z 30004KT 02/00 A304 RMK A01 T001700-0  RH  089%=      5-min Rain = 0
KSM1 091655Z 29003KT 02/00 A3039 RMK A01 T00210002  RH  088%=      5-min Rain = 0
KSM1 091700Z 30003KT 02/00 A3039 RMK A01 T00240003  RH  087%=      5-min Rain = 0
KSM1 091705Z 29003KT 03/01 A3039 RMK A01 T00270005  RH  087%=      5-min Rain = 0
KSM1 091710Z 29002KT 03/00 A3039 RMK A01 T00270000  RH  083%=      5-min Rain = 0
KSM1 091715Z 29001KT 03/00 A3039 RMK A01 T00300002  RH  083%=      5-min Rain = 0
KSM1 091720Z 36001KT 03/M00 A3039 RMK A01 T00331001  RH  079%=      5-min Rain = 0
KSM1 091725Z 31001KT 03/M00 A3039 RMK A01 T00341001  RH  078%=      5-min Rain = 0
KSM1 091730Z 29002KT 04/00 A3039 RMK A01 T00390002  RH  078%=      5-min Rain = 0
KSM1 091735Z 33003KT 04/00 A3039 RMK A01 T004000-0  RH  076%=      5-min Rain = 0
KSM1 091740Z 32002KT 04/M00 A3039 RMK A01 T00391001  RH  076%=      5-min Rain = 0
KSM1 091745Z 28001KT 04/00 A3039 RMK A01 T00410003  RH  077%=      5-min Rain = 0
KSM1 091750Z 33003KT 04/00 A3039 RMK A01 T00440001  RH  074%=      5-min Rain = 0
KSM1 091755Z 35001KT 04/M01 A3039 RMK A01 T00411005  RH  073%=      5-min Rain = 0
KSM1 091800Z 29002KT 04/00 A3038 RMK A01 T004300-0  RH  074%=      5-min Rain = 0
KSM1 091805Z 27002KT 05/00 A3038 RMK A01 T00450001  RH  074%=      5-min Rain = 0
KSM1 091810Z 26003KT 05/00 A3038 RMK A01 T00480001  RH  073%=      5-min Rain = 0
KSM1 091815Z 27003KT 05/00 A3038 RMK A01 T00490001  RH  072%=      5-min Rain = 0
KSM1 091820Z 27004KT 05/00 A3037 RMK A01 T00510003  RH  072%=      5-min Rain = 0
KSM1 091825Z 27002KT 05/00 A3037 RMK A01 T00500001  RH  071%=      5-min Rain = 0
KSM1 091830Z 30003KT 05/00 A3037 RMK A01 T00530001  RH  070%=      5-min Rain = 0
KSM1 091835Z 27003KT 06/00 A3037 RMK A01 T00560003  RH  069%=      5-min Rain = 0
KSM1 091840Z 27003KT 06/00 A3036 RMK A01 T00580003  RH  069%=      5-min Rain = 0
KSM1 091845Z 28003KT 06/00 A3036 RMK A01 T00580004  RH  069%=      5-min Rain = 0
KSM1 091850Z 29002KT 06/01 A3036 RMK A01 T00590005  RH  069%=      5-min Rain = 0
KSM1 091855Z 30003KT 06/01 A3036 RMK A01 T00610006  RH  069%=      5-min Rain = 0
KSM1 091900Z 33001KT 06/01 A3035 RMK A01 T00640009  RH  069%=      5-min Rain = 0
KSM1 091905Z 27002KT 07/01 A3035 RMK A01 T00650006  RH  067%=      5-min Rain = 0
KSM1 091910Z 28002KT 07/01 A3035 RMK A01 T00670007  RH  067%=      5-min Rain = 0
KSM1 091915Z 28003KT 07/01 A3035 RMK A01 T00680009  RH  067%=      5-min Rain = 0
KSM1 091920Z 33003KT 07/01 A3035 RMK A01 T00680009  RH  067%=      5-min Rain = 0
KSM1 091925Z 31004KT 07/01 A3034 RMK A01 T00670009  RH  067%=      5-min Rain = 0
KSM1 091930Z 28003KT 06/01 A3034 RMK A01 T00600005  RH  069%=      5-min Rain = 0
KSM1 091935Z 35002KT 06/00 A3034 RMK A01 T00570002  RH  068%=      5-min Rain = 0
KSM1 091940Z 02001KT 06/00 A3034 RMK A01 T00590002  RH  068%=      5-min Rain = 0
KSM1 091945Z 15001KT 07/00 A3034 RMK A01 T00690003  RH  064%=      5-min Rain = 0
KSM1 091950Z 25002KT 08/01 A3034 RMK A01 T00750007  RH  063%=      5-min Rain = 0
KSM1 091955Z 29002KT 07/01 A3033 RMK A01 T00740008  RH  063%=      5-min Rain = 0
KSM1 092000Z 27002KT 07/01 A3033 RMK A01 T00720007  RH  064%=      5-min Rain = 0
KSM1 092005Z 24002KT 07/01 A3033 RMK A01 T00710006  RH  064%=      5-min Rain = 0
KSM1 092010Z 30002KT 07/01 A3033 RMK A01 T00730007  RH  064%=      5-min Rain = 0
KSM1 092015Z 24002KT 07/01 A3033 RMK A01 T00740007  RH  063%=      5-min Rain = 0
KSM1 092020Z 20002KT 08/01 A3033 RMK A01 T00750007  RH  063%=      5-min Rain = 0
KSM1 092025Z 24003KT 08/01 A3033 RMK A01 T00760006  RH  062%=      5-min Rain = 0
KSM1 092030Z 26001KT 07/00 A3033 RMK A01 T00720004  RH  063%=      5-min Rain = 0
KSM1 092035Z 27000KT 07/01 A3033 RMK A01 T00720006  RH  064%=      5-min Rain = 0
KSM1 092040Z 29000KT 07/01 A3033 RMK A01 T00740007  RH  063%=      5-min Rain = 0
KSM1 092045Z 30001KT 07/00 A3033 RMK A01 T00720003  RH  062%=      5-min Rain = 0
KSM1 092050Z 31002KT 07/01 A3033 RMK A01 T00720006  RH  064%=      5-min Rain = 0
KSM1 092055Z 29002KT 08/01 A3033 RMK A01 T00760008  RH  063%=      5-min Rain = 0
KSM1 092100Z 29003KT 08/01 A3033 RMK A01 T00780009  RH  063%=      5-min Rain = 0
KSM1 092105Z 29003KT 08/01 A3033 RMK A01 T00780008  RH  062%=      5-min Rain = 0
KSM1 092110Z 31002KT 08/01 A3032 RMK A01 T00770006  RH  062%=      5-min Rain = 0
KSM1 092115Z 31002KT 08/01 A3033 RMK A01 T00750006  RH  062%=      5-min Rain = 0
KSM1 092120Z 26001KT 08/01 A3032 RMK A01 T00810008  RH  061%=      5-min Rain = 0
KSM1 092125Z 28001KT 08/01 A3032 RMK A01 T00820007  RH  060%=      5-min Rain = 0
KSM1 092130Z 25002KT 08/01 A3032 RMK A01 T00830008  RH  060%=      5-min Rain = 0
KSM1 092135Z 31003KT 08/01 A3032 RMK A01 T00840008  RH  060%=      5-min Rain = 0
KSM1 092140Z 29002KT 08/01 A3032 RMK A01 T00810009  RH  061%=      5-min Rain = 0
KSM1 092145Z 29001KT 08/01 A3032 RMK A01 T00840009  RH  060%=      5-min Rain = 0
KSM1 092150Z 28001KT 08/01 A3032 RMK A01 T00820007  RH  060%=      5-min Rain = 0
KSM1 092155Z 25001KT 08/01 A3032 RMK A01 T00840008  RH  060%=      5-min Rain = 0
KSM1 092200Z 29003KT 08/01 A3032 RMK A01 T00840007  RH  059%=      5-min Rain = 0
KSM1 092205Z 30002KT 08/01 A3032 RMK A01 T00800006  RH  060%=      5-min Rain = 0
KSM1 092210Z 30002KT 08/01 A3032 RMK A01 T00780006  RH  061%=      5-min Rain = 0
KSM1 092215Z 29003KT 08/01 A3032 RMK A01 T00790008  RH  062%=      5-min Rain = 0
KSM1 092220Z 29003KT 08/01 A3033 RMK A01 T00790008  RH  062%=      5-min Rain = 0
KSM1 092225Z 30002KT 08/01 A3033 RMK A01 T00790007  RH  061%=      5-min Rain = 0
KSM1 092230Z 28001KT 08/01 A3033 RMK A01 T00790006  RH  061%=      5-min Rain = 0
KSM1 092235Z 27002KT 08/01 A3033 RMK A01 T00800008  RH  061%=      5-min Rain = 0
KSM1 092240Z 30001KT 08/01 A3033 RMK A01 T00800006  RH  060%=      5-min Rain = 0
KSM1 092245Z 30000KT 08/01 A3033 RMK A01 T00820006  RH  060%=      5-min Rain = 0
KSM1 092250Z 30000KT 08/01 A3033 RMK A01 T00820006  RH  060%=      5-min Rain = 0
KSM1 092255Z 30001KT 08/01 A3033 RMK A01 T00800006  RH  060%=      5-min Rain = 0
KSM1 092300Z 33002KT 08/01 A3033 RMK A01 T00790007  RH  061%=      5-min Rain = 0
KSM1 092305Z 00002KT 08/01 A3033 RMK A01 T00760006  RH  062%=      5-min Rain = 0
KSM1 092310Z 00002KT 07/01 A3033 RMK A01 T00740006  RH  063%=      5-min Rain = 0
KSM1 092315Z 00002KT 07/01 A3033 RMK A01 T00720009  RH  065%=      5-min Rain = 0
KSM1 092320Z 00002KT 07/01 A3033 RMK A01 T00700008  RH  066%=      5-min Rain = 0
KSM1 092325Z 00002KT 07/01 A3033 RMK A01 T00670008  RH  067%=      5-min Rain = 0
KSM1 092330Z 00002KT 07/01 A3033 RMK A01 T00650008  RH  068%=      5-min Rain = 0
KSM1 092335Z 00002KT 06/01 A3033 RMK A01 T00630009  RH  069%=      5-min Rain = 0
KSM1 092340Z 00003KT 06/01 A3033 RMK A01 T00600008  RH  070%=      5-min Rain = 0
KSM1 092345Z 00002KT 06/01 A3033 RMK A01 T00560009  RH  073%=      5-min Rain = 0
KSM1 092350Z 00002KT 05/01 A3033 RMK A01 T00530009  RH  075%=      5-min Rain = 0
KSM1 092355Z 01002KT 05/01 A3033 RMK A01 T00510010  RH  076%=      5-min Rain = 0
KSM1 100000Z 01001KT 05/01 A3033 RMK A01 T00500010  RH  076%=      5-min Rain = 0
KSM1 100005Z 01000KT 05/01 A3033 RMK A01 T00490010  RH  077%=      5-min Rain = 0
KSM1 100010Z 00000KT 05/01 A3033 RMK A01 T00510011  RH  076%=      5-min Rain = 0
KSM1 100015Z 00001KT 05/01 A3033 RMK A01 T00530009  RH  075%=      5-min Rain = 0
KSM1 100020Z 00001KT 05/01 A3033 RMK A01 T00510010  RH  076%=      5-min Rain = 0
KSM1 100025Z 00001KT 05/01 A3033 RMK A01 T00500010  RH  077%=      5-min Rain = 0
KSM1 100030Z 00001KT 05/01 A3034 RMK A01 T00490010  RH  077%=      5-min Rain = 0
KSM1 100035Z 05001KT 05/01 A3034 RMK A01 T00450008  RH  078%=      5-min Rain = 0
KSM1 100040Z 08006KT 03/01 A3034 RMK A01 T00340006  RH  083%=      5-min Rain = 0
KSM1 100045Z 08005KT 04/01 A3034 RMK A01 T00360010  RH  084%=      5-min Rain = 0
KSM1 100050Z 08005KT 03/01 A3034 RMK A01 T00340010  RH  085%=      5-min Rain = 0
KSM1 100055Z 07005KT 03/01 A3034 RMK A01 T00290007  RH  086%=      5-min Rain = 0
KSM1 100100Z 07005KT 03/01 A3034 RMK A01 T00260007  RH  088%=      5-min Rain = 0
KSM1 100105Z 07005KT 03/01 A3035 RMK A01 T00250007  RH  089%=      5-min Rain = 0
KSM1 100110Z 06006KT 02/01 A3035 RMK A01 T00230005  RH  090%=      5-min Rain = 0
KSM1 100115Z 05006KT 02/01 A3035 RMK A01 T00220006  RH  090%=      5-min Rain = 0
KSM1 100120Z 04006KT 02/01 A3035 RMK A01 T00220005  RH  089%=      5-min Rain = 0
KSM1 100125Z 04006KT 02/00 A3036 RMK A01 T00220004  RH  089%=      5-min Rain = 0
KSM1 100130Z 04006KT 02/00 A3036 RMK A01 T00210003  RH  089%=      5-min Rain = 0
KSM1 100135Z 04006KT 02/00 A3036 RMK A01 T00200001  RH  088%=      5-min Rain = 0
KSM1 100140Z 04007KT 02/M00 A3036 RMK A01 T00191001  RH  087%=      5-min Rain = 0
KSM1 100145Z 04007KT 02/M00 A3037 RMK A01 T00191002  RH  087%=      5-min Rain = 0
KSM1 100150Z 04006KT 02/M00 A3037 RMK A01 T00181002  RH  088%=      5-min Rain = 0
KSM1 100155Z 03006KT 02/M00 A3037 RMK A01 T00171003  RH  088%=      5-min Rain = 0
KSM1 100200Z 03006KT 02/M00 A3037 RMK A01 T00151004  RH  088%=      5-min Rain = 0
KSM1 100205Z 04006KT 01/M00 A3037 RMK A01 T00141004  RH  089%=      5-min Rain = 0
KSM1 100210Z 04005KT 01/M01 A3037 RMK A01 T00121005  RH  089%=      5-min Rain = 0
KSM1 100215Z 04004KT 01/M01 A3036 RMK A01 T00111005  RH  090%=      5-min Rain = 0
KSM1 100220Z 04002KT 01/M01 A3036 RMK A01 T00101006  RH  090%=      5-min Rain = 0
KSM1 100225Z 04001KT 01/M01 A3036 RMK A01 T00101005  RH  091%=      5-min Rain = 0
KSM1 100230Z 04000KT 01/M00 A3036 RMK A01 T00121002  RH  091%=      5-min Rain = 0
KSM1 100235Z 04000KT 01/M00 A3036 RMK A01 T00141002  RH  090%=      5-min Rain = 0
KSM1 100240Z 04001KT 01/M00 A3036 RMK A01 T00141004  RH  089%=      5-min Rain = 0
KSM1 100245Z 04000KT 01/M01 A3036 RMK A01 T00131006  RH  088%=      5-min Rain = 0
KSM1 100250Z 04000KT 01/M01 A3036 RMK A01 T00121007  RH  088%=      5-min Rain = 0
KSM1 100255Z 04002KT 01/M01 A3036 RMK A01 T00061014  RH  087%=      5-min Rain = 0
KSM1 100300Z 04003KT M00/M02 A3036 RMK A01 T10011017  RH  089%=      5-min Rain = 0
KSM1 100305Z 05003KT M00/M02 A3036 RMK A01 T10031017  RH  091%=      5-min Rain = 0
KSM1 100310Z 06002KT M00/M02 A3036 RMK A01 T10031015  RH  092%=      5-min Rain = 0
KSM1 100315Z 05004KT M00/M01 A3037 RMK A01 T10011012  RH  093%=      5-min Rain = 0
KSM1 100320Z 04005KT M00/M02 A3037 RMK A01 T10031015  RH  092%=      5-min Rain = 0
KSM1 100325Z 03005KT M00/M01 A3038 RMK A01 T10021014  RH  092%=      5-min Rain = 0
KSM1 100330Z 03004KT M00/M01 A3038 RMK A01 T10011014  RH  092%=      5-min Rain = 0
KSM1 100335Z 02005KT M00/M01 A3038 RMK A01 T10011012  RH  093%=      5-min Rain = 0
KSM1 100340Z 01006KT M00/M01 A3038 RMK A01 T10011013  RH  092%=      5-min Rain = 0
KSM1 100345Z 34003KT 00/01 A3038 RMK A01 T00-00-11  RH  093%=      5-min Rain = 0
KSM1 100350Z 33003KT 00/M01 A3039 RMK A01 T00021009  RH  093%=      5-min Rain = 0
KSM1 100355Z 33003KT 00/M01 A3039 RMK A01 T00021010  RH  092%=      5-min Rain = 0
KSM1 100400Z 33003KT 00/M01 A3039 RMK A01 T00011011  RH  093%=      5-min Rain = 0
KSM1 100405Z 31003KT 00/01 A3039 RMK A01 T00000-11  RH  093%=      5-min Rain = 0
KSM1 100410Z 29004KT 00/01 A3039 RMK A01 T00-00-11  RH  093%=      5-min Rain = 0
KSM1 100415Z 29004KT 00/01 A3039 RMK A01 T00-00-10  RH  094%=      5-min Rain = 0
KSM1 100420Z 28004KT 00/01 A3039 RMK A01 T00000-10  RH  094%=      5-min Rain = 0
KSM1 100425Z 27003KT 00/M01 A3039 RMK A01 T00011010  RH  094%=      5-min Rain = 0
KSM1 100430Z 28004KT 00/01 A3039 RMK A01 T00000-10  RH  093%=      5-min Rain = 0
KSM1 100435Z 27004KT 00/M01 A3039 RMK A01 T00021009  RH  093%=      5-min Rain = 0
KSM1 100440Z 28004KT 00/M01 A3039 RMK A01 T00031009  RH  092%=      5-min Rain = 0
KSM1 100445Z 28005KT 00/M01 A3039 RMK A01 T00021013  RH  091%=      5-min Rain = 0
KSM1 100450Z 27005KT M00/M02 A304 RMK A01 T10011015  RH  091%=      5-min Rain = 0
KSM1 100455Z 28005KT M00/M02 A304 RMK A01 T10021015  RH  092%=      5-min Rain = 0
KSM1 100500Z 28006KT M01/M02 A3039 RMK A01 T10051019  RH  091%=      5-min Rain = 0
KSM1 100505Z 29005KT M01/M02 A3039 RMK A01 T10071019  RH  093%=      5-min Rain = 0
KSM1 100510Z 29005KT M01/M02 A3039 RMK A01 T10071018  RH  094%=      5-min Rain = 0
KSM1 100515Z 28005KT M01/M02 A3039 RMK A01 T10071016  RH  094%=      5-min Rain = 0
KSM1 100520Z 29005KT M01/M02 A3039 RMK A01 T10071016  RH  094%=      5-min Rain = 0
KSM1 100525Z 29005KT M01/M02 A3039 RMK A01 T10071017  RH  094%=      5-min Rain = 0
KSM1 100530Z 29005KT M01/M02 A3039 RMK A01 T10071016  RH  095%=      5-min Rain = 0
KSM1 100535Z 29004KT M01/M02 A3039 RMK A01 T10081017  RH  094%=      5-min Rain = 0
KSM1 100540Z 30004KT M01/M02 A3039 RMK A01 T10091018  RH  095%=      5-min Rain = 0
KSM1 100545Z 30004KT M01/M02 A3039 RMK A01 T10101019  RH  095%=      5-min Rain = 0
KSM1 100550Z 30003KT M01/M02 A3039 RMK A01 T10101019  RH  095%=      5-min Rain = 0
KSM1 100555Z 31004KT M01/M02 A3039 RMK A01 T10111019  RH  095%=      5-min Rain = 0

Page generated in 0.0157 seconds.